sensor_id;sensor_type;location;lat;lon;timestamp;pressure;altitude;pressure_sealevel;temperature
45393;BMP280;31129;44.810;10.334;2022-12-18T00:01:03;101776.38;;;6.69
45393;BMP280;31129;44.810;10.334;2022-12-18T00:03:35;101786.09;;;6.67
45393;BMP280;31129;44.810;10.334;2022-12-18T00:06:01;101789.94;;;6.69
45393;BMP280;31129;44.810;10.334;2022-12-18T00:08:27;101793.97;;;6.57
45393;BMP280;31129;44.810;10.334;2022-12-18T00:10:53;101797.31;;;6.69
45393;BMP280;31129;44.810;10.334;2022-12-18T00:13:18;101805.00;;;6.74
45393;BMP280;31129;44.810;10.334;2022-12-18T00:15:43;101804.63;;;6.41
45393;BMP280;31129;44.810;10.334;2022-12-18T00:18:09;101798.66;;;6.53
45393;BMP280;31129;44.810;10.334;2022-12-18T00:20:36;101803.63;;;6.58
45393;BMP280;31129;44.810;10.334;2022-12-18T00:23:02;101811.81;;;6.55
45393;BMP280;31129;44.810;10.334;2022-12-18T00:25:28;101806.72;;;6.60
45393;BMP280;31129;44.810;10.334;2022-12-18T00:27:53;101811.78;;;6.58
45393;BMP280;31129;44.810;10.334;2022-12-18T00:30:19;101809.44;;;6.60
45393;BMP280;31129;44.810;10.334;2022-12-18T00:32:44;101813.31;;;6.59
45393;BMP280;31129;44.810;10.334;2022-12-18T00:35:09;101808.75;;;6.53
45393;BMP280;31129;44.810;10.334;2022-12-18T00:37:35;101811.19;;;6.44
45393;BMP280;31129;44.810;10.334;2022-12-18T00:40:01;101805.66;;;6.51
45393;BMP280;31129;44.810;10.334;2022-12-18T00:42:27;101817.78;;;6.43
45393;BMP280;31129;44.810;10.334;2022-12-18T00:45:11;101812.31;;;6.46
45393;BMP280;31129;44.810;10.334;2022-12-18T00:47:37;101805.78;;;6.40
45393;BMP280;31129;44.810;10.334;2022-12-18T00:50:03;101801.41;;;6.50
45393;BMP280;31129;44.810;10.334;2022-12-18T00:52:28;101795.19;;;6.53
45393;BMP280;31129;44.810;10.334;2022-12-18T00:54:53;101804.41;;;6.59
45393;BMP280;31129;44.810;10.334;2022-12-18T00:57:19;101804.72;;;6.65
45393;BMP280;31129;44.810;10.334;2022-12-18T00:59:45;101814.84;;;6.60
45393;BMP280;31129;44.810;10.334;2022-12-18T01:02:10;101813.72;;;6.58
45393;BMP280;31129;44.810;10.334;2022-12-18T01:04:36;101821.56;;;6.49
45393;BMP280;31129;44.810;10.334;2022-12-18T01:07:01;101805.72;;;6.47
45393;BMP280;31129;44.810;10.334;2022-12-18T01:09:27;101818.44;;;6.50
45393;BMP280;31129;44.810;10.334;2022-12-18T01:11:55;101814.69;;;6.44
45393;BMP280;31129;44.810;10.334;2022-12-18T01:14:21;101822.47;;;6.39
45393;BMP280;31129;44.810;10.334;2022-12-18T01:16:47;101823.06;;;6.53
45393;BMP280;31129;44.810;10.334;2022-12-18T01:19:12;101814.69;;;6.44
45393;BMP280;31129;44.810;10.334;2022-12-18T01:21:38;101823.09;;;6.50
45393;BMP280;31129;44.810;10.334;2022-12-18T01:24:04;101824.56;;;6.58
45393;BMP280;31129;44.810;10.334;2022-12-18T01:26:30;101827.72;;;6.53
45393;BMP280;31129;44.810;10.334;2022-12-18T01:28:56;101833.91;;;6.53
45393;BMP280;31129;44.810;10.334;2022-12-18T01:31:24;101840.94;;;6.47
45393;BMP280;31129;44.810;10.334;2022-12-18T01:33:51;101840.91;;;6.51
45393;BMP280;31129;44.810;10.334;2022-12-18T01:36:21;101846.28;;;6.54
45393;BMP280;31129;44.810;10.334;2022-12-18T01:38:47;101846.03;;;6.42
45393;BMP280;31129;44.810;10.334;2022-12-18T01:41:15;101851.72;;;6.54
45393;BMP280;31129;44.810;10.334;2022-12-18T01:43:52;101873.38;;;6.58
45393;BMP280;31129;44.810;10.334;2022-12-18T01:46:22;101873.81;;;6.53
45393;BMP280;31129;44.810;10.334;2022-12-18T01:48:50;101873.88;;;6.46
45393;BMP280;31129;44.810;10.334;2022-12-18T01:51:16;101876.47;;;6.56
45393;BMP280;31129;44.810;10.334;2022-12-18T01:53:44;101881.28;;;6.45
45393;BMP280;31129;44.810;10.334;2022-12-18T01:56:13;101884.78;;;6.39
45393;BMP280;31129;44.810;10.334;2022-12-18T01:59:00;101877.09;;;6.34
45393;BMP280;31129;44.810;10.334;2022-12-18T02:01:29;101886.22;;;6.13
45393;BMP280;31129;44.810;10.334;2022-12-18T02:03:55;101888.78;;;6.27
45393;BMP280;31129;44.810;10.334;2022-12-18T02:06:38;101895.31;;;6.33
45393;BMP280;31129;44.810;10.334;2022-12-18T02:11:42;101898.06;;;6.26
45393;BMP280;31129;44.810;10.334;2022-12-18T02:17:46;101907.63;;;5.97
45393;BMP280;31129;44.810;10.334;2022-12-18T02:20:23;101909.19;;;5.98
45393;BMP280;31129;44.810;10.334;2022-12-18T02:23:06;101910.72;;;5.95
45393;BMP280;31129;44.810;10.334;2022-12-18T02:25:58;101918.84;;;5.99
45393;BMP280;31129;44.810;10.334;2022-12-18T02:28:31;101916.81;;;6.06
45393;BMP280;31129;44.810;10.334;2022-12-18T02:31:04;101923.41;;;6.05
45393;BMP280;31129;44.810;10.334;2022-12-18T02:33:33;101928.81;;;6.12
45393;BMP280;31129;44.810;10.334;2022-12-18T02:36:00;101939.31;;;6.03
45393;BMP280;31129;44.810;10.334;2022-12-18T02:38:28;101938.22;;;5.97
45393;BMP280;31129;44.810;10.334;2022-12-18T02:40:58;101933.56;;;5.98
45393;BMP280;31129;44.810;10.334;2022-12-18T02:43:25;101933.25;;;5.88
45393;BMP280;31129;44.810;10.334;2022-12-18T02:45:57;101939.09;;;5.83
45393;BMP280;31129;44.810;10.334;2022-12-18T02:48:27;101923.22;;;5.82
45393;BMP280;31129;44.810;10.334;2022-12-18T02:53:56;101928.63;;;5.85
45393;BMP280;31129;44.810;10.334;2022-12-18T02:56:35;101930.88;;;5.90
45393;BMP280;31129;44.810;10.334;2022-12-18T02:59:13;101930.63;;;5.74
45393;BMP280;31129;44.810;10.334;2022-12-18T03:04:16;101936.16;;;5.56
45393;BMP280;31129;44.810;10.334;2022-12-18T03:06:47;101940.03;;;5.52
45393;BMP280;31129;44.810;10.334;2022-12-18T03:09:33;101934.53;;;5.62
45393;BMP280;31129;44.810;10.334;2022-12-18T03:12:09;101933.06;;;5.54
45393;BMP280;31129;44.810;10.334;2022-12-18T03:15:15;101940.03;;;5.55
45393;BMP280;31129;44.810;10.334;2022-12-18T03:17:50;101946.22;;;5.52
45393;BMP280;31129;44.810;10.334;2022-12-18T03:20:20;101948.88;;;5.59
45393;BMP280;31129;44.810;10.334;2022-12-18T03:22:51;101948.53;;;5.57
45393;BMP280;31129;44.810;10.334;2022-12-18T03:25:18;101956.28;;;5.45
45393;BMP280;31129;44.810;10.334;2022-12-18T03:27:51;101962.13;;;5.43
45393;BMP280;31129;44.810;10.334;2022-12-18T03:30:22;101955.94;;;5.36
45393;BMP280;31129;44.810;10.334;2022-12-18T03:35:42;101950.53;;;5.39
45393;BMP280;31129;44.810;10.334;2022-12-18T03:38:10;101949.78;;;5.32
45393;BMP280;31129;44.810;10.334;2022-12-18T03:41:36;101947.84;;;5.32
45393;BMP280;31129;44.810;10.334;2022-12-18T03:44:25;101947.84;;;5.28
45393;BMP280;31129;44.810;10.334;2022-12-18T03:52:05;101966.47;;;5.12
45393;BMP280;31129;44.810;10.334;2022-12-18T03:54:32;101963.75;;;5.23
45393;BMP280;31129;44.810;10.334;2022-12-18T03:57:19;101970.31;;;5.25
45393;BMP280;31129;44.810;10.334;2022-12-18T03:59:50;101975.69;;;5.29
45393;BMP280;31129;44.810;10.334;2022-12-18T04:02:18;101980.31;;;5.32
45393;BMP280;31129;44.810;10.334;2022-12-18T04:04:47;101992.28;;;5.35
45393;BMP280;31129;44.810;10.334;2022-12-18T04:07:16;101992.31;;;5.27
45393;BMP280;31129;44.810;10.334;2022-12-18T04:09:44;102000.44;;;5.27
45393;BMP280;31129;44.810;10.334;2022-12-18T04:12:12;102000.06;;;5.18
45393;BMP280;31129;44.810;10.334;2022-12-18T04:14:38;102003.19;;;5.20
45393;BMP280;31129;44.810;10.334;2022-12-18T04:17:06;101996.97;;;5.20
45393;BMP280;31129;44.810;10.334;2022-12-18T04:19:32;102002.78;;;5.22
45393;BMP280;31129;44.810;10.334;2022-12-18T04:21:59;101998.19;;;5.01
45393;BMP280;31129;44.810;10.334;2022-12-18T04:24:25;101997.00;;;5.23
45393;BMP280;31129;44.810;10.334;2022-12-18T04:27:10;102002.00;;;5.14
45393;BMP280;31129;44.810;10.334;2022-12-18T04:29:43;102007.88;;;5.06
45393;BMP280;31129;44.810;10.334;2022-12-18T04:32:09;102003.13;;;5.27
45393;BMP280;31129;44.810;10.334;2022-12-18T04:34:35;102015.88;;;5.34
45393;BMP280;31129;44.810;10.334;2022-12-18T04:37:01;102022.06;;;5.31
45393;BMP280;31129;44.810;10.334;2022-12-18T04:39:27;102034.03;;;5.34
45393;BMP280;31129;44.810;10.334;2022-12-18T04:41:55;102027.88;;;5.37
45393;BMP280;31129;44.810;10.334;2022-12-18T04:44:21;102022.44;;;5.33
45393;BMP280;31129;44.810;10.334;2022-12-18T04:46:46;102027.09;;;5.40
45393;BMP280;31129;44.810;10.334;2022-12-18T04:49:12;102028.22;;;5.35
45393;BMP280;31129;44.810;10.334;2022-12-18T04:51:38;102021.34;;;5.23
45393;BMP280;31129;44.810;10.334;2022-12-18T04:54:03;102027.53;;;5.24
45393;BMP280;31129;44.810;10.334;2022-12-18T04:56:30;102035.59;;;5.31
45393;BMP280;31129;44.810;10.334;2022-12-18T04:58:56;102035.66;;;5.20
45393;BMP280;31129;44.810;10.334;2022-12-18T05:01:21;102029.44;;;5.27
45393;BMP280;31129;44.810;10.334;2022-12-18T05:03:47;102034.06;;;5.19
45393;BMP280;31129;44.810;10.334;2022-12-18T05:06:13;102040.66;;;5.25
45393;BMP280;31129;44.810;10.334;2022-12-18T05:08:38;102045.69;;;5.23
45393;BMP280;31129;44.810;10.334;2022-12-18T05:11:09;102034.47;;;5.18
45393;BMP280;31129;44.810;10.334;2022-12-18T05:13:38;102050.31;;;5.26
45393;BMP280;31129;44.810;10.334;2022-12-18T05:16:04;102059.16;;;5.30
45393;BMP280;31129;44.810;10.334;2022-12-18T05:18:30;102056.84;;;5.33
45393;BMP280;31129;44.810;10.334;2022-12-18T05:20:55;102051.03;;;5.34
45393;BMP280;31129;44.810;10.334;2022-12-18T05:23:22;102062.66;;;5.27
45393;BMP280;31129;44.810;10.334;2022-12-18T05:25:52;102065.00;;;5.15
45393;BMP280;31129;44.810;10.334;2022-12-18T05:28:19;102068.09;;;5.24
45393;BMP280;31129;44.810;10.334;2022-12-18T05:30:52;102073.13;;;5.22
45393;BMP280;31129;44.810;10.334;2022-12-18T05:33:22;102076.19;;;5.27
45393;BMP280;31129;44.810;10.334;2022-12-18T05:35:55;102087.03;;;5.13
45393;BMP280;31129;44.810;10.334;2022-12-18T05:38:22;102084.72;;;5.15
45393;BMP280;31129;44.810;10.334;2022-12-18T05:40:51;102094.75;;;5.18
45393;BMP280;31129;44.810;10.334;2022-12-18T05:43:18;102100.56;;;5.24
45393;BMP280;31129;44.810;10.334;2022-12-18T05:45:45;102089.78;;;5.10
45393;BMP280;31129;44.810;10.334;2022-12-18T05:48:11;102088.19;;;5.16
45393;BMP280;31129;44.810;10.334;2022-12-18T05:50:37;102081.63;;;5.20
45393;BMP280;31129;44.810;10.334;2022-12-18T05:53:04;102081.59;;;5.31
45393;BMP280;31129;44.810;10.334;2022-12-18T05:55:34;102095.53;;;5.26
45393;BMP280;31129;44.810;10.334;2022-12-18T05:58:00;102109.03;;;5.29
45393;BMP280;31129;44.810;10.334;2022-12-18T06:00:26;102113.31;;;5.23
45393;BMP280;31129;44.810;10.334;2022-12-18T06:02:52;102116.00;;;5.20
45393;BMP280;31129;44.810;10.334;2022-12-18T06:05:17;102112.56;;;5.23
45393;BMP280;31129;44.810;10.334;2022-12-18T06:07:42;102110.22;;;5.21
45393;BMP280;31129;44.810;10.334;2022-12-18T06:10:11;102111.78;;;5.08
45393;BMP280;31129;44.810;10.334;2022-12-18T06:12:37;102115.25;;;5.23
45393;BMP280;31129;44.810;10.334;2022-12-18T06:15:02;102121.03;;;5.14
45393;BMP280;31129;44.810;10.334;2022-12-18T06:17:29;102127.63;;;5.24
45393;BMP280;31129;44.810;10.334;2022-12-18T06:19:55;102125.66;;;5.17
45393;BMP280;31129;44.810;10.334;2022-12-18T06:22:21;102129.19;;;5.07
45393;BMP280;31129;44.810;10.334;2022-12-18T06:24:49;102132.25;;;5.16
45393;BMP280;31129;44.810;10.334;2022-12-18T06:27:14;102136.91;;;5.26
45393;BMP280;31129;44.810;10.334;2022-12-18T06:29:40;102143.06;;;5.20
45393;BMP280;31129;44.810;10.334;2022-12-18T06:32:06;102149.63;;;5.29
45393;BMP280;31129;44.810;10.334;2022-12-18T06:34:32;102153.50;;;5.28
45393;BMP280;31129;44.810;10.334;2022-12-18T06:36:58;102149.66;;;5.37
45393;BMP280;31129;44.810;10.334;2022-12-18T06:39:24;102158.53;;;5.37
45393;BMP280;31129;44.810;10.334;2022-12-18T06:41:49;102159.66;;;5.33
45393;BMP280;31129;44.810;10.334;2022-12-18T06:44:15;102168.16;;;5.35
45393;BMP280;31129;44.810;10.334;2022-12-18T06:46:40;102173.97;;;5.29
45393;BMP280;31129;44.810;10.334;2022-12-18T06:49:06;102174.00;;;5.37
45393;BMP280;31129;44.810;10.334;2022-12-18T06:51:34;102188.28;;;5.34
45393;BMP280;31129;44.810;10.334;2022-12-18T06:54:00;102187.53;;;5.37
45393;BMP280;31129;44.810;10.334;2022-12-18T06:56:25;102181.31;;;5.29
45393;BMP280;31129;44.810;10.334;2022-12-18T06:58:51;102185.59;;;5.37
45393;BMP280;31129;44.810;10.334;2022-12-18T07:01:16;102182.88;;;5.41
45393;BMP280;31129;44.810;10.334;2022-12-18T07:03:42;102185.59;;;5.41
45393;BMP280;31129;44.810;10.334;2022-12-18T07:06:17;102186.38;;;5.41
45393;BMP280;31129;44.810;10.334;2022-12-18T07:08:44;102181.34;;;5.40
45393;BMP280;31129;44.810;10.334;2022-12-18T07:11:09;102183.66;;;5.52
45393;BMP280;31129;44.810;10.334;2022-12-18T07:13:35;102187.88;;;5.46
45393;BMP280;31129;44.810;10.334;2022-12-18T07:18:30;102194.09;;;5.57
45393;BMP280;31129;44.810;10.334;2022-12-18T07:20:56;102202.97;;;5.54
45393;BMP280;31129;44.810;10.334;2022-12-18T07:23:21;102200.63;;;5.49
45393;BMP280;31129;44.810;10.334;2022-12-18T07:25:46;102197.53;;;5.47
45393;BMP280;31129;44.810;10.334;2022-12-18T07:28:12;102203.75;;;5.54
45393;BMP280;31129;44.810;10.334;2022-12-18T07:30:38;102211.44;;;5.59
45393;BMP280;31129;44.810;10.334;2022-12-18T07:33:06;102214.53;;;5.65
45393;BMP280;31129;44.810;10.334;2022-12-18T07:35:32;102214.16;;;5.70
45393;BMP280;31129;44.810;10.334;2022-12-18T07:37:58;102220.75;;;5.73
45393;BMP280;31129;44.810;10.334;2022-12-18T07:40:26;102226.56;;;5.71
45393;BMP280;31129;44.810;10.334;2022-12-18T07:42:51;102221.53;;;5.70
45393;BMP280;31129;44.810;10.334;2022-12-18T07:45:17;102227.72;;;5.70
45393;BMP280;31129;44.810;10.334;2022-12-18T07:47:42;102235.06;;;5.73
45393;BMP280;31129;44.810;10.334;2022-12-18T07:50:08;102234.69;;;5.71
45393;BMP280;31129;44.810;10.334;2022-12-18T07:52:35;102233.91;;;5.71
45393;BMP280;31129;44.810;10.334;2022-12-18T07:55:00;102241.59;;;5.79
45393;BMP280;31129;44.810;10.334;2022-12-18T07:57:26;102252.84;;;5.74
45393;BMP280;31129;44.810;10.334;2022-12-18T07:59:51;102258.22;;;5.81
45393;BMP280;31129;44.810;10.334;2022-12-18T08:02:16;102262.50;;;5.79
45393;BMP280;31129;44.810;10.334;2022-12-18T08:04:42;102251.28;;;5.80
45393;BMP280;31129;44.810;10.334;2022-12-18T08:07:07;102259.00;;;5.78
45393;BMP280;31129;44.810;10.334;2022-12-18T08:09:33;102276.44;;;5.84
45393;BMP280;31129;44.810;10.334;2022-12-18T08:11:58;102270.63;;;5.79
45393;BMP280;31129;44.810;10.334;2022-12-18T08:14:24;102277.59;;;5.76
45393;BMP280;31129;44.810;10.334;2022-12-18T08:16:50;102288.41;;;5.76
45393;BMP280;31129;44.810;10.334;2022-12-18T08:19:15;102288.78;;;5.78
45393;BMP280;31129;44.810;10.334;2022-12-18T08:21:41;102300.03;;;5.77
45393;BMP280;31129;44.810;10.334;2022-12-18T08:24:08;102310.47;;;5.75
45393;BMP280;31129;44.810;10.334;2022-12-18T08:26:34;102304.69;;;5.69
45393;BMP280;31129;44.810;10.334;2022-12-18T08:29:00;102308.91;;;5.77
45393;BMP280;31129;44.810;10.334;2022-12-18T08:31:26;102306.97;;;5.78
45393;BMP280;31129;44.810;10.334;2022-12-18T08:33:53;102318.22;;;5.83
45393;BMP280;31129;44.810;10.334;2022-12-18T08:36:19;102318.19;;;5.80
45393;BMP280;31129;44.810;10.334;2022-12-18T08:38:45;102317.06;;;5.67
45393;BMP280;31129;44.810;10.334;2022-12-18T08:41:13;102324.41;;;5.70
45393;BMP280;31129;44.810;10.334;2022-12-18T08:43:39;102331.78;;;5.69
45393;BMP280;31129;44.810;10.334;2022-12-18T08:46:25;102330.97;;;5.79
45393;BMP280;31129;44.810;10.334;2022-12-18T08:48:52;102327.50;;;5.72
45393;BMP280;31129;44.810;10.334;2022-12-18T08:51:18;102334.09;;;5.85
45393;BMP280;31129;44.810;10.334;2022-12-18T08:53:44;102334.88;;;5.85
45393;BMP280;31129;44.810;10.334;2022-12-18T08:56:10;102336.41;;;5.83
45393;BMP280;31129;44.810;10.334;2022-12-18T08:58:36;102332.16;;;5.89
45393;BMP280;31129;44.810;10.334;2022-12-18T09:01:07;102341.44;;;5.88
45393;BMP280;31129;44.810;10.334;2022-12-18T09:03:37;102341.06;;;5.72
45393;BMP280;31129;44.810;10.334;2022-12-18T09:06:06;102356.13;;;5.76
45393;BMP280;31129;44.810;10.334;2022-12-18T09:08:35;102357.31;;;5.72
45393;BMP280;31129;44.810;10.334;2022-12-18T09:11:01;102367.34;;;5.71
45393;BMP280;31129;44.810;10.334;2022-12-18T09:13:27;102363.84;;;5.63
45393;BMP280;31129;44.810;10.334;2022-12-18T09:15:57;102366.94;;;5.66
45393;BMP280;31129;44.810;10.334;2022-12-18T09:18:23;102371.59;;;5.69
45393;BMP280;31129;44.810;10.334;2022-12-18T09:20:52;102377.81;;;5.69
45393;BMP280;31129;44.810;10.334;2022-12-18T09:23:18;102391.72;;;5.75
45393;BMP280;31129;44.810;10.334;2022-12-18T09:25:43;102389.78;;;5.79
45393;BMP280;31129;44.810;10.334;2022-12-18T09:28:12;102390.19;;;5.84
45393;BMP280;31129;44.810;10.334;2022-12-18T09:30:38;102389.03;;;5.82
45393;BMP280;31129;44.810;10.334;2022-12-18T09:33:04;102388.25;;;5.88
45393;BMP280;31129;44.810;10.334;2022-12-18T09:35:29;102387.88;;;5.83
45393;BMP280;31129;44.810;10.334;2022-12-18T09:37:55;102399.06;;;5.92
45393;BMP280;31129;44.810;10.334;2022-12-18T09:40:23;102397.53;;;5.94
45393;BMP280;31129;44.810;10.334;2022-12-18T09:42:59;102389.00;;;5.92
45393;BMP280;31129;44.810;10.334;2022-12-18T09:45:26;102398.31;;;6.02
45393;BMP280;31129;44.810;10.334;2022-12-18T09:47:53;102388.66;;;6.01
45393;BMP280;31129;44.810;10.334;2022-12-18T09:50:24;102392.50;;;6.11
45393;BMP280;31129;44.810;10.334;2022-12-18T09:52:54;102397.91;;;6.32
45393;BMP280;31129;44.810;10.334;2022-12-18T09:55:36;102397.91;;;6.43
45393;BMP280;31129;44.810;10.334;2022-12-18T09:58:13;102394.44;;;6.17
45393;BMP280;31129;44.810;10.334;2022-12-18T10:00:40;102402.97;;;6.30
45393;BMP280;31129;44.810;10.334;2022-12-18T10:03:11;102407.19;;;6.38
45393;BMP280;31129;44.810;10.334;2022-12-18T10:06:02;102402.50;;;6.53
45393;BMP280;31129;44.810;10.334;2022-12-18T10:09:25;102400.53;;;6.68
45393;BMP280;31129;44.810;10.334;2022-12-18T10:11:40;102405.59;;;6.55
45393;BMP280;31129;44.810;10.334;2022-12-18T10:14:16;102407.16;;;6.56
45393;BMP280;31129;44.810;10.334;2022-12-18T10:16:59;102399.81;;;6.35
45393;BMP280;31129;44.810;10.334;2022-12-18T10:19:41;102398.69;;;6.29
45393;BMP280;31129;44.810;10.334;2022-12-18T10:25:12;102406.03;;;6.21
45393;BMP280;31129;44.810;10.334;2022-12-18T10:27:40;102404.47;;;6.35
45393;BMP280;31129;44.810;10.334;2022-12-18T10:30:14;102407.56;;;6.51
45393;BMP280;31129;44.810;10.334;2022-12-18T10:32:40;102413.75;;;6.48
45393;BMP280;31129;44.810;10.334;2022-12-18T10:35:33;102419.53;;;6.60
45393;BMP280;31129;44.810;10.334;2022-12-18T10:43:31;102416.84;;;6.53
45393;BMP280;31129;44.810;10.334;2022-12-18T10:51:19;102419.56;;;6.57
45393;BMP280;31129;44.810;10.334;2022-12-18T10:54:04;102418.38;;;6.58
45393;BMP280;31129;44.810;10.334;2022-12-18T10:56:31;102412.97;;;6.58
45393;BMP280;31129;44.810;10.334;2022-12-18T10:59:09;102417.28;;;6.45
45393;BMP280;31129;44.810;10.334;2022-12-18T11:01:50;102416.81;;;6.64
45393;BMP280;31129;44.810;10.334;2022-12-18T11:04:19;102417.22;;;6.52
45393;BMP280;31129;44.810;10.334;2022-12-18T11:06:53;102410.31;;;6.44
45393;BMP280;31129;44.810;10.334;2022-12-18T11:11:55;102418.78;;;6.53
45393;BMP280;31129;44.810;10.334;2022-12-18T11:14:31;102428.88;;;6.42
45393;BMP280;31129;44.810;10.334;2022-12-18T11:16:58;102423.81;;;6.51
45393;BMP280;31129;44.810;10.334;2022-12-18T11:21:50;102425.34;;;6.59
45393;BMP280;31129;44.810;10.334;2022-12-18T11:24:29;102431.56;;;6.59
45393;BMP280;31129;44.810;10.334;2022-12-18T11:26:59;102424.59;;;6.58
45393;BMP280;31129;44.810;10.334;2022-12-18T11:29:33;102427.28;;;6.66
45393;BMP280;31129;44.810;10.334;2022-12-18T11:34:42;102423.03;;;6.65
45393;BMP280;31129;44.810;10.334;2022-12-18T11:37:11;102417.59;;;6.68
45393;BMP280;31129;44.810;10.334;2022-12-18T11:39:59;102419.16;;;6.58
45393;BMP280;31129;44.810;10.334;2022-12-18T11:42:45;102416.84;;;6.57
45393;BMP280;31129;44.810;10.334;2022-12-18T11:47:45;102409.88;;;6.59
45393;BMP280;31129;44.810;10.334;2022-12-18T11:50:24;102414.50;;;6.70
45393;BMP280;31129;44.810;10.334;2022-12-18T11:52:50;102416.41;;;6.80
45393;BMP280;31129;44.810;10.334;2022-12-18T11:55:23;102418.66;;;6.88
45393;BMP280;31129;44.810;10.334;2022-12-18T12:00:31;102417.47;;;7.00
45393;BMP280;31129;44.810;10.334;2022-12-18T12:05:50;102414.03;;;6.96
45393;BMP280;31129;44.810;10.334;2022-12-18T12:08:31;102422.94;;;6.93
45393;BMP280;31129;44.810;10.334;2022-12-18T12:14:07;102431.00;;;7.11
45393;BMP280;31129;44.810;10.334;2022-12-18T12:30:28;102418.38;;;7.52
45393;BMP280;31129;44.810;10.334;2022-12-18T12:35:44;102422.13;;;7.69
45393;BMP280;31129;44.810;10.334;2022-12-18T12:38:48;102416.25;;;7.78
45393;BMP280;31129;44.810;10.334;2022-12-18T12:41:14;102413.72;;;8.01
45393;BMP280;31129;44.810;10.334;2022-12-18T12:44:03;102417.19;;;8.05
45393;BMP280;31129;44.810;10.334;2022-12-18T12:46:31;102412.03;;;8.18
45393;BMP280;31129;44.810;10.334;2022-12-18T12:49:09;102415.41;;;8.33
45393;BMP280;31129;44.810;10.334;2022-12-18T12:51:41;102412.34;;;8.27
45393;BMP280;31129;44.810;10.334;2022-12-18T12:54:17;102410.03;;;8.22
45393;BMP280;31129;44.810;10.334;2022-12-18T12:59:20;102422.50;;;8.19
45393;BMP280;31129;44.810;10.334;2022-12-18T13:02:21;102415.28;;;8.02
45393;BMP280;31129;44.810;10.334;2022-12-18T13:04:58;102406.69;;;8.07
45393;BMP280;31129;44.810;10.334;2022-12-18T13:12:40;102402.94;;;7.90
45393;BMP280;31129;44.810;10.334;2022-12-18T13:15:25;102393.69;;;8.25
45393;BMP280;31129;44.810;10.334;2022-12-18T13:20:38;102394.81;;;8.32
45393;BMP280;31129;44.810;10.334;2022-12-18T13:25:55;102398.22;;;8.39
45393;BMP280;31129;44.810;10.334;2022-12-18T13:28:49;102392.72;;;8.46
45393;BMP280;31129;44.810;10.334;2022-12-18T13:31:09;102392.03;;;8.35
45393;BMP280;31129;44.810;10.334;2022-12-18T13:38:39;102412.09;;;8.52
45393;BMP280;31129;44.810;10.334;2022-12-18T13:43:45;102398.66;;;8.68
45393;BMP280;31129;44.810;10.334;2022-12-18T13:49:02;102399.31;;;9.10
45393;BMP280;31129;44.810;10.334;2022-12-18T13:51:31;102406.84;;;8.99
45393;BMP280;31129;44.810;10.334;2022-12-18T13:54:00;102401.06;;;8.93
45393;BMP280;31129;44.810;10.334;2022-12-18T13:56:32;102404.41;;;8.77
45393;BMP280;31129;44.810;10.334;2022-12-18T14:01:43;102409.25;;;8.63
45393;BMP280;31129;44.810;10.334;2022-12-18T14:04:11;102410.13;;;8.52
45393;BMP280;31129;44.810;10.334;2022-12-18T14:06:36;102407.81;;;8.51
45393;BMP280;31129;44.810;10.334;2022-12-18T14:09:02;102408.19;;;8.53
45393;BMP280;31129;44.810;10.334;2022-12-18T14:11:29;102410.84;;;8.60
45393;BMP280;31129;44.810;10.334;2022-12-18T14:13:56;102402.94;;;8.69
45393;BMP280;31129;44.810;10.334;2022-12-18T14:16:21;102410.03;;;8.63
45393;BMP280;31129;44.810;10.334;2022-12-18T14:18:53;102408.94;;;8.53
45393;BMP280;31129;44.810;10.334;2022-12-18T14:21:30;102402.31;;;8.54
45393;BMP280;31129;44.810;10.334;2022-12-18T14:24:15;102399.66;;;8.51
45393;BMP280;31129;44.810;10.334;2022-12-18T14:26:41;102391.63;;;8.37
45393;BMP280;31129;44.810;10.334;2022-12-18T14:29:26;102394.75;;;8.35
45393;BMP280;31129;44.810;10.334;2022-12-18T14:32:24;102391.22;;;8.38
45393;BMP280;31129;44.810;10.334;2022-12-18T14:34:52;102387.09;;;8.23
45393;BMP280;31129;44.810;10.334;2022-12-18T14:37:24;102393.88;;;8.11
45393;BMP280;31129;44.810;10.334;2022-12-18T14:39:57;102390.28;;;8.18
45393;BMP280;31129;44.810;10.334;2022-12-18T14:42:24;102388.78;;;8.13
45393;BMP280;31129;44.810;10.334;2022-12-18T14:47:58;102381.16;;;7.94
45393;BMP280;31129;44.810;10.334;2022-12-18T14:50:24;102390.94;;;7.88
45393;BMP280;31129;44.810;10.334;2022-12-18T14:52:50;102394.88;;;7.80
45393;BMP280;31129;44.810;10.334;2022-12-18T14:55:20;102391.78;;;7.81
45393;BMP280;31129;44.810;10.334;2022-12-18T14:57:51;102397.66;;;7.73
45393;BMP280;31129;44.810;10.334;2022-12-18T15:00:20;102400.81;;;7.64
45393;BMP280;31129;44.810;10.334;2022-12-18T15:03:05;102404.31;;;7.65
45393;BMP280;31129;44.810;10.334;2022-12-18T15:05:33;102402.06;;;7.56
45393;BMP280;31129;44.810;10.334;2022-12-18T15:07:59;102400.09;;;7.56
45393;BMP280;31129;44.810;10.334;2022-12-18T15:10:28;102407.91;;;7.54
45393;BMP280;31129;44.810;10.334;2022-12-18T15:20:53;102399.84;;;7.37
45393;BMP280;31129;44.810;10.334;2022-12-18T15:26:00;102410.38;;;7.28
45393;BMP280;31129;44.810;10.334;2022-12-18T15:28:34;102407.72;;;7.20
45393;BMP280;31129;44.810;10.334;2022-12-18T15:33:31;102412.41;;;7.09
45393;BMP280;31129;44.810;10.334;2022-12-18T15:36:03;102412.03;;;7.00
45393;BMP280;31129;44.810;10.334;2022-12-18T15:38:29;102407.41;;;6.97
45393;BMP280;31129;44.810;10.334;2022-12-18T15:40:55;102415.59;;;6.93
45393;BMP280;31129;44.810;10.334;2022-12-18T15:43:24;102413.28;;;6.81
45393;BMP280;31129;44.810;10.334;2022-12-18T15:46:04;102416.03;;;6.78
45393;BMP280;31129;44.810;10.334;2022-12-18T15:48:32;102417.97;;;6.77
45393;BMP280;31129;44.810;10.334;2022-12-18T15:50:58;102421.03;;;6.83
45393;BMP280;31129;44.810;10.334;2022-12-18T15:53:25;102424.91;;;6.71
45393;BMP280;31129;44.810;10.334;2022-12-18T15:55:53;102413.72;;;6.69
45393;BMP280;31129;44.810;10.334;2022-12-18T15:58:37;102424.97;;;6.64
45393;BMP280;31129;44.810;10.334;2022-12-18T16:01:02;102422.66;;;6.59
45393;BMP280;31129;44.810;10.334;2022-12-18T16:03:28;102419.94;;;6.63
45393;BMP280;31129;44.810;10.334;2022-12-18T16:05:54;102415.69;;;6.51